Welcome, Texas
Current Conditions -  °F | °C
As of 4:55 PM on Thursday 23 Oct 2014 (Local Time) from K11R Reporting Station
Clear Clear  
Wind Chill: 80°   Ceiling: Unl
Heat Index: 80°   Visibility: 10mi
Dew Point: 54°   Wind: 6mph
Humidity: 40%   Direction: 360°N
Pressure: 30.07"   Gusts: NA
Location:  29.9936°N, 96.5297°W
Report Text: K11R 232155Z AUTO 36005KT 10SM CLR 27/12 A3007 RMK AO2 T02680122
Loading
Personal Weather Stations






























Interactive Weather Map
Tropical Storm Tracking
New forecast layout! Learn more

10-Day Weather Forecast

Advertisements
Track Severe Weather on mobile